Time;durP1;ratioP1;P1;durP2;ratioP2;P2;SDS_P1;SDS_P2;PMS_P1;PMS_P2;Temp;Humidity;BMP_temperature;BMP_pressure;BME280_temperature;BME280_humidity;BME280_pressure;Samples;Min_cycle;Max_cycle;Signal;HPM_P1;HPM_P2
2022/06/18 00:00:29;;;;;;;;;;;21.80;54.10;;;;;;20853748;28;20003;-73
2022/06/18 00:10:29;;;;;;;;;;;21.70;54.20;;;;;;20836468;28;20441;-74
2022/06/18 00:20:30;;;;;;;;;;;21.70;54.20;;;;;;20836562;28;19928;-74
2022/06/18 00:30:31;;;;;;;;;;;21.70;54.30;;;;;;20851963;28;19963;-73
2022/06/18 00:40:38;;;;;;;;;;;21.70;54.30;;;;;;20817834;28;19960;-75
2022/06/18 00:50:41;;;;;;;;;;;21.70;54.40;;;;;;20802928;28;19917;-73
2022/06/18 01:00:43;;;;;;;;;;;21.70;54.40;;;;;;20801653;28;19920;-73
2022/06/18 01:10:46;;;;;;;;;;;21.70;54.50;;;;;;20833587;28;19917;-73
2022/06/18 01:20:54;;;;;;;;;;;21.70;54.50;;;;;;20816643;28;20370;-75
2022/06/18 01:30:55;;;;;;;;;;;21.70;54.60;;;;;;20807092;28;20268;-74
2022/06/18 01:51:47;;;;;;;;;;;21.60;54.60;;;;;;20814204;28;20273;-74
2022/06/18 02:02:03;;;;;;;;;;;21.60;54.70;;;;;;20839796;28;20376;-75
2022/06/18 02:12:05;;;;;;;;;;;21.60;54.70;;;;;;20837984;28;19913;-73
2022/06/18 02:22:08;;;;;;;;;;;21.60;54.80;;;;;;20830903;28;19927;-74
2022/06/18 02:32:12;;;;;;;;;;;21.60;54.80;;;;;;20830968;28;19916;-74
2022/06/18 02:42:14;;;;;;;;;;;21.60;54.80;;;;;;20819846;28;19929;-73
2022/06/18 02:52:15;;;;;;;;;;;21.50;54.80;;;;;;20844066;28;19936;-73
2022/06/18 03:02:16;;;;;;;;;;;21.60;54.90;;;;;;20854283;28;19932;-74
2022/06/18 03:12:17;;;;;;;;;;;21.50;54.90;;;;;;20858005;28;19913;-73
2022/06/18 03:22:18;;;;;;;;;;;21.50;54.90;;;;;;20848806;28;20272;-73
2022/06/18 03:32:19;;;;;;;;;;;21.50;54.90;;;;;;20821263;28;19917;-74
2022/06/18 03:42:20;;;;;;;;;;;21.50;55.00;;;;;;20842647;28;20341;-74
2022/06/18 03:52:20;;;;;;;;;;;21.50;54.90;;;;;;20822436;28;19925;-74
2022/06/18 04:02:21;;;;;;;;;;;21.40;54.80;;;;;;20826914;28;19960;-74
2022/06/18 04:12:22;;;;;;;;;;;21.40;54.80;;;;;;20813403;28;20393;-74
2022/06/18 04:22:41;;;;;;;;;;;21.40;54.70;;;;;;20852480;28;19929;-74
2022/06/18 04:32:42;;;;;;;;;;;21.40;54.50;;;;;;20849505;28;20043;-74
2022/06/18 04:42:43;;;;;;;;;;;21.40;54.50;;;;;;20814501;28;19952;-74
2022/06/18 04:52:44;;;;;;;;;;;21.40;54.50;;;;;;20826812;28;19923;-73
2022/06/18 05:02:44;;;;;;;;;;;21.50;54.50;;;;;;20826552;28;19917;-74
2022/06/18 05:13:03;;;;;;;;;;;21.50;54.50;;;;;;20819332;28;19936;-75
2022/06/18 05:23:19;;;;;;;;;;;21.50;54.40;;;;;;20807613;28;19913;-74
2022/06/18 05:33:19;;;;;;;;;;;21.50;54.50;;;;;;20818241;28;19921;-75
2022/06/18 05:43:23;;;;;;;;;;;21.60;54.70;;;;;;20817154;28;19939;-72
2022/06/18 05:53:24;;;;;;;;;;;21.60;54.70;;;;;;20814012;28;19921;-74
2022/06/18 06:03:27;;;;;;;;;;;21.60;54.70;;;;;;20829612;28;19933;-72
2022/06/18 06:13:29;;;;;;;;;;;21.70;54.70;;;;;;20818156;28;19949;-71
2022/06/18 06:23:29;;;;;;;;;;;21.70;54.70;;;;;;20808304;28;19913;-71
2022/06/18 06:33:30;;;;;;;;;;;21.70;54.70;;;;;;20815148;28;19921;-72
2022/06/18 06:43:30;;;;;;;;;;;21.80;54.70;;;;;;20832786;28;19952;-74
2022/06/18 06:53:31;;;;;;;;;;;21.80;54.60;;;;;;20818073;28;20291;-77
2022/06/18 07:03:32;;;;;;;;;;;21.90;54.70;;;;;;20828995;28;19928;-73
2022/06/18 07:13:33;;;;;;;;;;;22.00;54.80;;;;;;20828010;28;19928;-72
2022/06/18 07:23:33;;;;;;;;;;;22.00;54.80;;;;;;20817937;28;20268;-73
2022/06/18 07:33:35;;;;;;;;;;;22.00;54.80;;;;;;21202158;22;20386;-74
2022/06/18 07:43:37;;;;;;;;;;;22.00;54.80;;;;;;20810661;28;19917;-74
2022/06/18 07:53:38;;;;;;;;;;;22.10;54.90;;;;;;20786245;28;19976;-74
2022/06/18 08:03:39;;;;;;;;;;;22.10;55.00;;;;;;20820826;28;19913;-70
2022/06/18 08:13:39;;;;;;;;;;;22.10;55.30;;;;;;20821912;28;19975;-73
2022/06/18 08:23:40;;;;;;;;;;;22.10;55.50;;;;;;20779396;28;19979;-75
2022/06/18 08:33:40;;;;;;;;;;;22.20;55.60;;;;;;20785652;28;19921;-76
2022/06/18 08:43:49;;;;;;;;;;;22.20;55.70;;;;;;20823696;28;19921;-73
2022/06/18 08:54:02;;;;;;;;;;;22.20;55.80;;;;;;20809615;28;19984;-72
2022/06/18 09:04:21;;;;;;;;;;;22.30;56.10;;;;;;20809506;28;20005;-72
2022/06/18 09:14:25;;;;;;;;;;;22.30;56.10;;;;;;20821263;28;19921;-73
2022/06/18 09:24:31;;;;;;;;;;;22.30;56.20;;;;;;20811640;28;19936;-74
2022/06/18 09:34:33;;;;;;;;;;;22.40;56.30;;;;;;20804683;28;19932;-74
2022/06/18 09:44:36;;;;;;;;;;;22.40;56.60;;;;;;20805816;28;19913;-73
2022/06/18 09:54:37;;;;;;;;;;;22.40;56.80;;;;;;20789630;28;20056;-73
2022/06/18 10:14:59;;;;;;;;;;;22.40;57.00;;;;;;20816739;28;20363;-73
2022/06/18 10:24:59;;;;;;;;;;;22.50;57.30;;;;;;20783018;28;19966;-73
2022/06/18 10:35:06;;;;;;;;;;;22.50;57.40;;;;;;20804109;28;20015;-74
2022/06/18 10:45:10;;;;;;;;;;;22.50;57.50;;;;;;20786281;28;19925;-74
2022/06/18 10:55:11;;;;;;;;;;;22.50;57.50;;;;;;20786295;28;19978;-73
2022/06/18 11:05:31;;;;;;;;;;;22.50;57.70;;;;;;20818046;28;19939;-73
2022/06/18 11:15:36;;;;;;;;;;;22.50;57.90;;;;;;20812507;28;19925;-72
2022/06/18 11:25:40;;;;;;;;;;;22.50;58.00;;;;;;20794596;28;20012;-77
2022/06/18 11:35:41;;;;;;;;;;;22.60;58.00;;;;;;20822212;28;19921;-76
2022/06/18 11:45:45;;;;;;;;;;;22.60;58.00;;;;;;20811039;28;19913;-76
2022/06/18 11:55:48;;;;;;;;;;;22.70;58.00;;;;;;20806638;28;19925;-76
2022/06/18 12:06:07;;;;;;;;;;;22.70;58.00;;;;;;20811061;28;19913;-73
2022/06/18 12:16:14;;;;;;;;;;;22.80;58.00;;;;;;20817352;28;19921;-73
2022/06/18 12:26:14;;;;;;;;;;;22.80;57.80;;;;;;20780620;28;20004;-75
2022/06/18 12:36:19;;;;;;;;;;;22.80;57.80;;;;;;20810077;28;20332;-74
2022/06/18 12:46:27;;;;;;;;;;;22.90;57.80;;;;;;20811356;28;19996;-71
2022/06/18 12:56:30;;;;;;;;;;;23.00;57.80;;;;;;20794417;28;20371;-74
2022/06/18 13:06:50;;;;;;;;;;;23.00;57.70;;;;;;20805439;28;20288;-76
2022/06/18 13:16:52;;;;;;;;;;;23.00;57.60;;;;;;20805460;28;19921;-75
2022/06/18 13:37:20;;;;;;;;;;;23.10;57.50;;;;;;20812637;28;20295;-74
2022/06/18 13:47:33;;;;;;;;;;;23.20;57.50;;;;;;20810273;28;20364;-76
2022/06/18 13:57:38;;;;;;;;;;;23.30;57.50;;;;;;20796993;28;19928;-74
2022/06/18 14:07:42;;;;;;;;;;;23.40;57.40;;;;;;20792520;28;19971;-74
2022/06/18 14:17:44;;;;;;;;;;;23.50;57.40;;;;;;20804908;28;19947;-74
2022/06/18 14:27:46;;;;;;;;;;;23.50;57.40;;;;;;20791216;28;19913;-73
2022/06/18 14:37:46;;;;;;;;;;;23.60;57.40;;;;;;20821237;28;19936;-75
2022/06/18 14:48:06;;;;;;;;;;;23.70;57.40;;;;;;20817089;28;19913;-75
2022/06/18 14:58:10;;;;;;;;;;;23.80;57.40;;;;;;20806388;28;19974;-74
2022/06/18 15:08:11;;;;;;;;;;;23.90;57.50;;;;;;20828944;28;19936;-74
2022/06/18 15:18:35;;;;;;;;;;;24.00;57.40;;;;;;20814387;28;19928;-80
2022/06/18 15:28:42;;;;;;;;;;;24.00;57.40;;;;;;20834042;28;19957;-75
2022/06/18 15:38:43;;;;;;;;;;;24.00;57.30;;;;;;20797434;28;19921;-74
2022/06/18 15:48:47;;;;;;;;;;;24.10;57.20;;;;;;20831573;28;19913;-75
2022/06/18 15:58:47;;;;;;;;;;;24.10;57.10;;;;;;20808953;28;19921;-74
2022/06/18 16:09:03;;;;;;;;;;;24.20;57.10;;;;;;20801546;28;20282;-75
2022/06/18 16:19:04;;;;;;;;;;;24.20;57.00;;;;;;20826683;28;19921;-71
2022/06/18 16:29:04;;;;;;;;;;;24.30;57.00;;;;;;20787576;28;20394;-72
2022/06/18 16:39:07;;;;;;;;;;;24.20;57.00;;;;;;20824660;28;19921;-72
2022/06/18 16:49:15;;;;;;;;;;;24.30;57.00;;;;;;20808362;28;19927;-74
2022/06/18 16:59:16;;;;;;;;;;;24.30;57.00;;;;;;20785672;28;20373;-75
2022/06/18 17:09:17;;;;;;;;;;;24.20;56.90;;;;;;20814634;28;19925;-74
2022/06/18 17:19:17;;;;;;;;;;;24.20;57.00;;;;;;20804772;28;20059;-75
2022/06/18 17:39:37;;;;;;;;;;;24.30;57.10;;;;;;20823054;28;19966;-73
2022/06/18 17:49:38;;;;;;;;;;;24.20;57.20;;;;;;20804624;28;19919;-76
2022/06/18 17:59:39;;;;;;;;;;;24.30;57.40;;;;;;20800177;28;19943;-76
2022/06/18 18:09:39;;;;;;;;;;;24.20;57.50;;;;;;20821097;28;19971;-74
2022/06/18 18:19:40;;;;;;;;;;;24.30;57.60;;;;;;20801732;28;19952;-75
2022/06/18 18:29:40;;;;;;;;;;;24.30;57.60;;;;;;20787439;28;19913;-76
2022/06/18 18:39:41;;;;;;;;;;;24.20;57.70;;;;;;20786573;28;19921;-71
2022/06/18 18:49:41;;;;;;;;;;;24.20;57.80;;;;;;20798696;28;19917;-74
2022/06/18 18:59:43;;;;;;;;;;;24.20;57.90;;;;;;20783932;28;20012;-74
2022/06/18 19:09:43;;;;;;;;;;;24.20;58.00;;;;;;20761683;28;19913;-73
2022/06/18 19:19:44;;;;;;;;;;;24.10;58.00;;;;;;20792703;28;20422;-76
2022/06/18 19:29:46;;;;;;;;;;;24.20;58.10;;;;;;20815349;28;19913;-74
2022/06/18 19:39:47;;;;;;;;;;;24.10;58.20;;;;;;20829645;28;20333;-73
2022/06/18 19:49:47;;;;;;;;;;;24.10;58.30;;;;;;20827766;28;19913;-73
2022/06/18 19:59:48;;;;;;;;;;;24.10;58.40;;;;;;20793006;28;20239;-74
2022/06/18 20:09:48;;;;;;;;;;;24.10;58.50;;;;;;20813459;28;19921;-74
2022/06/18 20:19:49;;;;;;;;;;;24.10;58.60;;;;;;20812623;28;19921;-74
2022/06/18 20:29:49;;;;;;;;;;;24.10;58.80;;;;;;20813579;28;19913;-74
2022/06/18 20:39:50;;;;;;;;;;;24.00;58.70;;;;;;20812987;28;19943;-74
2022/06/18 20:49:50;;;;;;;;;;;24.00;58.80;;;;;;20782611;28;19970;-75
2022/06/18 20:59:52;;;;;;;;;;;24.00;58.90;;;;;;20811225;28;19929;-74
2022/06/18 21:09:53;;;;;;;;;;;23.90;58.90;;;;;;20795352;28;20287;-74
2022/06/18 21:19:53;;;;;;;;;;;24.00;59.00;;;;;;20790425;28;19929;-75
2022/06/18 21:29:54;;;;;;;;;;;23.90;59.10;;;;;;20789666;28;19917;-75
2022/06/18 21:39:59;;;;;;;;;;;23.90;59.10;;;;;;20807602;28;20019;-75
2022/06/18 21:49:59;;;;;;;;;;;23.90;59.20;;;;;;20807644;28;20379;-74
2022/06/18 22:00:13;;;;;;;;;;;23.90;59.20;;;;;;20806843;28;19928;-73
2022/06/18 22:10:14;;;;;;;;;;;23.90;59.30;;;;;;20822654;28;19920;-74
2022/06/18 22:20:14;;;;;;;;;;;23.90;59.40;;;;;;20806415;28;20265;-74
2022/06/18 22:30:15;;;;;;;;;;;23.90;59.40;;;;;;20805579;28;20355;-75
2022/06/18 22:40:15;;;;;;;;;;;23.90;59.50;;;;;;20804677;28;19943;-74
2022/06/18 22:50:18;;;;;;;;;;;23.80;59.50;;;;;;20807400;28;19914;-74
2022/06/18 23:00:18;;;;;;;;;;;23.90;59.50;;;;;;20820710;28;19928;-74
2022/06/18 23:10:19;;;;;;;;;;;23.90;59.50;;;;;;20820951;28;19913;-74
2022/06/18 23:20:20;;;;;;;;;;;23.80;59.50;;;;;;20802588;28;19921;-74
2022/06/18 23:30:23;;;;;;;;;;;23.90;59.50;;;;;;20815807;28;21769;-75
2022/06/18 23:40:29;;;;;;;;;;;23.80;59.40;;;;;;20791538;28;20662;-74
2022/06/18 23:50:33;;;;;;;;;;;23.80;59.40;;;;;;20817284;28;19917;-75
